sensor_id;sensor_type;location;lat;lon;timestamp;pressure;altitude;pressure_sealevel;temperature;humidity
47524;BME280;33253;42.144;25.884;2023-06-22T00:00:57;100615.56;;;22.20;100.00
47524;BME280;33253;42.144;25.884;2023-06-22T00:03:26;100649.88;;;22.03;100.00
47524;BME280;33253;42.144;25.884;2023-06-22T00:05:52;100635.94;;;21.94;100.00
47524;BME280;33253;42.144;25.884;2023-06-22T00:08:18;100668.25;;;22.04;100.00
47524;BME280;33253;42.144;25.884;2023-06-22T00:10:44;100656.03;;;22.00;100.00
47524;BME280;33253;42.144;25.884;2023-06-22T00:13:10;100669.13;;;22.09;100.00
47524;BME280;33253;42.144;25.884;2023-06-22T00:15:37;100675.28;;;22.05;100.00
47524;BME280;33253;42.144;25.884;2023-06-22T00:18:04;100681.41;;;22.04;100.00
47524;BME280;33253;42.144;25.884;2023-06-22T00:20:30;100656.06;;;21.94;100.00
47524;BME280;33253;42.144;25.884;2023-06-22T00:22:57;100682.22;;;22.14;100.00
47524;BME280;33253;42.144;25.884;2023-06-22T00:25:23;100683.94;;;22.20;100.00
47524;BME280;33253;42.144;25.884;2023-06-22T00:27:49;100671.72;;;22.12;100.00
47524;BME280;33253;42.144;25.884;2023-06-22T00:30:16;100669.00;;;22.23;100.00
47524;BME280;33253;42.144;25.884;2023-06-22T00:32:42;100684.72;;;22.37;100.00
47524;BME280;33253;42.144;25.884;2023-06-22T00:35:08;100684.66;;;22.43;100.00
47524;BME280;33253;42.144;25.884;2023-06-22T00:37:35;100668.81;;;22.50;100.00
47524;BME280;33253;42.144;25.884;2023-06-22T00:40:01;100675.75;;;22.55;100.00
47524;BME280;33253;42.144;25.884;2023-06-22T00:42:27;100672.31;;;22.50;100.00
47524;BME280;33253;42.144;25.884;2023-06-22T00:44:53;100673.19;;;22.51;100.00
47524;BME280;33253;42.144;25.884;2023-06-22T00:47:18;100677.50;;;22.58;100.00
47524;BME280;33253;42.144;25.884;2023-06-22T00:49:44;100637.34;;;22.33;100.00
47524;BME280;33253;42.144;25.884;2023-06-22T00:52:12;100673.16;;;22.54;100.00
47524;BME280;33253;42.144;25.884;2023-06-22T00:54:40;100665.25;;;22.55;100.00
47524;BME280;33253;42.144;25.884;2023-06-22T00:57:13;100676.56;;;22.64;100.00
47524;BME280;33253;42.144;25.884;2023-06-22T00:59:42;100673.91;;;22.65;100.00
47524;BME280;33253;42.144;25.884;2023-06-22T01:02:08;100667.75;;;22.71;100.00
47524;BME280;33253;42.144;25.884;2023-06-22T01:04:35;100670.34;;;22.75;100.00
47524;BME280;33253;42.144;25.884;2023-06-22T01:15:28;100674.59;;;22.86;100.00
47524;BME280;33253;42.144;25.884;2023-06-22T01:17:57;100681.59;;;22.85;100.00
47524;BME280;33253;42.144;25.884;2023-06-22T01:20:25;100684.31;;;22.81;100.00
47524;BME280;33253;42.144;25.884;2023-06-22T01:23:09;100679.03;;;22.79;100.00
47524;BME280;33253;42.144;25.884;2023-06-22T01:26:19;100678.38;;;22.58;100.00
47524;BME280;33253;42.144;25.884;2023-06-22T01:28:54;100670.59;;;22.46;100.00
47524;BME280;33253;42.144;25.884;2023-06-22T01:31:22;100639.16;;;22.27;100.00
47524;BME280;33253;42.144;25.884;2023-06-22T01:33:54;100659.22;;;22.42;100.00
47524;BME280;33253;42.144;25.884;2023-06-22T01:36:21;100662.66;;;22.52;100.00
47524;BME280;33253;42.144;25.884;2023-06-22T01:38:47;100663.47;;;22.57;100.00
47524;BME280;33253;42.144;25.884;2023-06-22T01:41:13;100656.56;;;22.47;100.00
47524;BME280;33253;42.144;25.884;2023-06-22T01:43:39;100660.97;;;22.45;100.00
47524;BME280;33253;42.144;25.884;2023-06-22T01:46:06;100652.13;;;22.49;100.00
47524;BME280;33253;42.144;25.884;2023-06-22T01:48:31;100653.00;;;22.53;100.00
47524;BME280;33253;42.144;25.884;2023-06-22T01:50:57;100659.16;;;22.49;100.00
47524;BME280;33253;42.144;25.884;2023-06-22T01:53:23;100646.09;;;22.41;100.00
47524;BME280;33253;42.144;25.884;2023-06-22T01:55:49;100624.28;;;22.22;100.00
47524;BME280;33253;42.144;25.884;2023-06-22T01:58:15;100661.09;;;22.25;100.00
47524;BME280;33253;42.144;25.884;2023-06-22T02:00:49;100662.91;;;22.20;100.00
47524;BME280;33253;42.144;25.884;2023-06-22T02:03:23;100634.13;;;21.98;100.00
47524;BME280;33253;42.144;25.884;2023-06-22T02:06:21;100669.09;;;22.12;100.00
47524;BME280;33253;42.144;25.884;2023-06-22T02:08:53;100653.34;;;22.11;100.00
47524;BME280;33253;42.144;25.884;2023-06-22T02:11:20;100666.34;;;22.26;100.00
47524;BME280;33253;42.144;25.884;2023-06-22T02:13:47;100669.81;;;22.30;100.00
47524;BME280;33253;42.144;25.884;2023-06-22T02:16:14;100654.91;;;22.29;100.00
47524;BME280;33253;42.144;25.884;2023-06-22T02:18:51;100661.13;;;22.23;100.00
47524;BME280;33253;42.144;25.884;2023-06-22T02:21:20;100656.84;;;22.10;100.00
47524;BME280;33253;42.144;25.884;2023-06-22T02:23:46;100653.41;;;22.00;100.00
47524;BME280;33253;42.144;25.884;2023-06-22T02:26:12;100666.50;;;22.06;100.00
47524;BME280;33253;42.144;25.884;2023-06-22T02:28:38;100665.59;;;22.10;100.00
47524;BME280;33253;42.144;25.884;2023-06-22T02:31:03;100666.53;;;22.03;100.00
47524;BME280;33253;42.144;25.884;2023-06-22T02:33:29;100672.72;;;21.96;100.00
47524;BME280;33253;42.144;25.884;2023-06-22T02:35:54;100680.66;;;21.85;100.00
47524;BME280;33253;42.144;25.884;2023-06-22T02:38:20;100690.28;;;21.89;100.00
47524;BME280;33253;42.144;25.884;2023-06-22T02:40:46;100685.81;;;21.99;100.00
47524;BME280;33253;42.144;25.884;2023-06-22T02:43:12;100688.44;;;22.01;100.00
47524;BME280;33253;42.144;25.884;2023-06-22T02:45:38;100662.31;;;21.74;100.00
47524;BME280;33253;42.144;25.884;2023-06-22T02:48:04;100653.72;;;21.46;100.00
47524;BME280;33253;42.144;25.884;2023-06-22T02:50:30;100684.34;;;21.48;100.00
47524;BME280;33253;42.144;25.884;2023-06-22T02:52:55;100687.88;;;21.38;100.00
47524;BME280;33253;42.144;25.884;2023-06-22T02:55:21;100680.03;;;21.33;100.00
47524;BME280;33253;42.144;25.884;2023-06-22T02:57:46;100688.81;;;21.23;100.00
47524;BME280;33253;42.144;25.884;2023-06-22T03:00:14;100691.53;;;20.84;100.00
47524;BME280;33253;42.144;25.884;2023-06-22T03:02:47;100691.53;;;20.95;100.00
47524;BME280;33253;42.144;25.884;2023-06-22T03:05:13;100680.13;;;21.03;100.00
47524;BME280;33253;42.144;25.884;2023-06-22T03:07:40;100689.75;;;21.10;100.00
47524;BME280;33253;42.144;25.884;2023-06-22T03:10:07;100695.84;;;21.15;100.00
47524;BME280;33253;42.144;25.884;2023-06-22T03:12:34;100653.88;;;20.99;100.00
47524;BME280;33253;42.144;25.884;2023-06-22T03:15:00;100687.94;;;21.23;100.00
47524;BME280;33253;42.144;25.884;2023-06-22T03:17:25;100689.69;;;21.24;100.00
47524;BME280;33253;42.144;25.884;2023-06-22T03:19:50;100689.69;;;21.24;100.00
47524;BME280;33253;42.144;25.884;2023-06-22T03:22:16;100697.59;;;21.19;100.00
47524;BME280;33253;42.144;25.884;2023-06-22T03:24:41;100688.84;;;21.15;100.00
47524;BME280;33253;42.144;25.884;2023-06-22T03:27:07;100698.47;;;21.12;100.00
47524;BME280;33253;42.144;25.884;2023-06-22T03:29:32;100702.00;;;21.01;100.00
47524;BME280;33253;42.144;25.884;2023-06-22T03:31:57;100698.53;;;20.95;100.00
47524;BME280;33253;42.144;25.884;2023-06-22T03:34:23;100704.63;;;20.98;100.00
47524;BME280;33253;42.144;25.884;2023-06-22T03:36:48;100689.81;;;20.85;100.00
47524;BME280;33253;42.144;25.884;2023-06-22T03:39:14;100691.56;;;20.72;100.00
47524;BME280;33253;42.144;25.884;2023-06-22T03:41:39;100709.03;;;20.55;100.00
47524;BME280;33253;42.144;25.884;2023-06-22T03:44:04;100709.03;;;20.48;100.00
47524;BME280;33253;42.144;25.884;2023-06-22T03:46:30;100702.06;;;20.41;100.00
47524;BME280;33253;42.144;25.884;2023-06-22T03:48:55;100714.28;;;20.41;100.00
47524;BME280;33253;42.144;25.884;2023-06-22T03:51:21;100688.91;;;20.21;100.00
47524;BME280;33253;42.144;25.884;2023-06-22T03:53:46;100716.03;;;20.34;100.00
47524;BME280;33253;42.144;25.884;2023-06-22T03:56:13;100706.41;;;20.27;100.00
47524;BME280;33253;42.144;25.884;2023-06-22T03:58:45;100702.91;;;20.23;100.00
47524;BME280;33253;42.144;25.884;2023-06-22T04:01:10;100723.91;;;20.28;100.00
47524;BME280;33253;42.144;25.884;2023-06-22T04:03:37;100721.25;;;20.25;100.00
47524;BME280;33253;42.144;25.884;2023-06-22T04:06:02;100724.78;;;20.33;100.00
47524;BME280;33253;42.144;25.884;2023-06-22T04:08:28;100706.41;;;20.34;100.00
47524;BME280;33253;42.144;25.884;2023-06-22T04:10:53;100711.69;;;20.50;100.00
47524;BME280;33253;42.144;25.884;2023-06-22T04:13:19;100725.66;;;20.57;100.00
47524;BME280;33253;42.144;25.884;2023-06-22T04:15:45;100698.56;;;20.62;100.00
47524;BME280;33253;42.144;25.884;2023-06-22T04:18:10;100720.41;;;20.83;100.00
47524;BME280;33253;42.144;25.884;2023-06-22T04:20:35;100720.41;;;20.77;100.00
47524;BME280;33253;42.144;25.884;2023-06-22T04:23:01;100725.66;;;20.81;100.00
47524;BME280;33253;42.144;25.884;2023-06-22T04:25:27;100726.53;;;20.87;100.00
47524;BME280;33253;42.144;25.884;2023-06-22T04:27:52;100693.31;;;20.73;100.00
47524;BME280;33253;42.144;25.884;2023-06-22T04:30:18;100727.38;;;20.98;100.00
47524;BME280;33253;42.144;25.884;2023-06-22T04:32:44;100728.22;;;21.15;100.00
47524;BME280;33253;42.144;25.884;2023-06-22T04:35:10;100724.69;;;21.29;100.00
47524;BME280;33253;42.144;25.884;2023-06-22T04:37:36;100716.81;;;21.29;100.00
47524;BME280;33253;42.144;25.884;2023-06-22T04:40:01;100728.16;;;21.34;100.00
47524;BME280;33253;42.144;25.884;2023-06-22T04:42:29;100727.31;;;21.27;100.00
47524;BME280;33253;42.144;25.884;2023-06-22T04:44:55;100735.19;;;21.26;100.00
47524;BME280;33253;42.144;25.884;2023-06-22T04:47:21;100734.38;;;21.02;100.00
47524;BME280;33253;42.144;25.884;2023-06-22T04:49:46;100727.38;;;21.06;100.00
47524;BME280;33253;42.144;25.884;2023-06-22T04:52:13;100740.47;;;21.18;100.00
47524;BME280;33253;42.144;25.884;2023-06-22T04:54:40;100734.28;;;21.33;100.00
47524;BME280;33253;42.144;25.884;2023-06-22T04:57:13;100735.16;;;21.37;100.00
47524;BME280;33253;42.144;25.884;2023-06-22T04:59:41;100732.53;;;21.46;100.00
47524;BME280;33253;42.144;25.884;2023-06-22T05:02:07;100751.75;;;21.59;100.00
47524;BME280;33253;42.144;25.884;2023-06-22T05:04:33;100735.09;;;21.50;100.00
47524;BME280;33253;42.144;25.884;2023-06-22T05:07:02;100748.25;;;21.61;100.00
47524;BME280;33253;42.144;25.884;2023-06-22T05:09:28;100741.19;;;21.73;100.00
47524;BME280;33253;42.144;25.884;2023-06-22T05:11:53;100742.84;;;21.88;100.00
47524;BME280;33253;42.144;25.884;2023-06-22T05:14:19;100749.78;;;21.98;100.00
47524;BME280;33253;42.144;25.884;2023-06-22T05:16:45;100748.88;;;22.08;100.00
47524;BME280;33253;42.144;25.884;2023-06-22T05:19:11;100723.53;;;21.95;100.00
47524;BME280;33253;42.144;25.884;2023-06-22T05:21:37;100714.75;;;21.99;100.00
47524;BME280;33253;42.144;25.884;2023-06-22T05:24:03;100747.88;;;22.25;100.00
47524;BME280;33253;42.144;25.884;2023-06-22T05:26:30;100711.19;;;22.08;100.00
47524;BME280;33253;42.144;25.884;2023-06-22T05:28:56;100743.50;;;22.24;100.00
47524;BME280;33253;42.144;25.884;2023-06-22T05:31:22;100749.59;;;22.38;100.00
47524;BME280;33253;42.144;25.884;2023-06-22T05:33:49;100745.97;;;22.50;100.00
47524;BME280;33253;42.144;25.884;2023-06-22T05:36:15;100746.75;;;22.65;100.00
47524;BME280;33253;42.144;25.884;2023-06-22T05:38:41;100739.78;;;22.60;100.00
47524;BME280;33253;42.144;25.884;2023-06-22T05:41:07;100744.91;;;22.73;100.00
47524;BME280;33253;42.144;25.884;2023-06-22T05:43:33;100742.19;;;22.82;100.00
47524;BME280;33253;42.144;25.884;2023-06-22T05:46:00;100719.44;;;22.76;100.00
47524;BME280;33253;42.144;25.884;2023-06-22T05:48:25;100735.09;;;22.89;100.00
47524;BME280;33253;42.144;25.884;2023-06-22T05:50:51;100730.63;;;22.99;100.00
47524;BME280;33253;42.144;25.884;2023-06-22T05:53:17;100741.81;;;23.22;100.00
47524;BME280;33253;42.144;25.884;2023-06-22T05:55:42;100745.19;;;23.34;100.00
47524;BME280;33253;42.144;25.884;2023-06-22T05:58:08;100738.28;;;23.26;100.00
47524;BME280;33253;42.144;25.884;2023-06-22T06:00:34;100737.34;;;23.27;100.00
47524;BME280;33253;42.144;25.884;2023-06-22T06:03:00;100726.75;;;23.34;100.00
47524;BME280;33253;42.144;25.884;2023-06-22T06:05:30;100734.50;;;23.49;100.00
47524;BME280;33253;42.144;25.884;2023-06-22T06:07:55;100742.25;;;23.58;99.03
47524;BME280;33253;42.144;25.884;2023-06-22T06:10:21;100744.81;;;23.68;97.62
47524;BME280;33253;42.144;25.884;2023-06-22T06:12:46;100742.94;;;23.74;97.32
47524;BME280;33253;42.144;25.884;2023-06-22T06:15:11;100748.97;;;23.84;96.48
47524;BME280;33253;42.144;25.884;2023-06-22T06:17:45;100742.81;;;23.85;95.97
47524;BME280;33253;42.144;25.884;2023-06-22T06:20:11;100737.44;;;23.95;97.18
47524;BME280;33253;42.144;25.884;2023-06-22T06:22:37;100711.09;;;23.93;97.75
47524;BME280;33253;42.144;25.884;2023-06-22T06:25:02;100728.41;;;24.10;95.38
47524;BME280;33253;42.144;25.884;2023-06-22T06:27:28;100755.50;;;24.21;96.98
47524;BME280;33253;42.144;25.884;2023-06-22T06:29:54;100755.56;;;24.18;99.88
47524;BME280;33253;42.144;25.884;2023-06-22T06:32:19;100751.91;;;24.27;100.00
47524;BME280;33253;42.144;25.884;2023-06-22T06:34:45;100746.66;;;24.25;100.00
47524;BME280;33253;42.144;25.884;2023-06-22T06:37:10;100739.69;;;24.21;100.00
47524;BME280;33253;42.144;25.884;2023-06-22T06:39:36;100744.00;;;24.27;99.33
47524;BME280;33253;42.144;25.884;2023-06-22T06:42:01;100714.31;;;24.12;96.46
47524;BME280;33253;42.144;25.884;2023-06-22T06:44:27;100743.91;;;24.33;97.64
47524;BME280;33253;42.144;25.884;2023-06-22T06:46:53;100739.25;;;24.49;98.80
47524;BME280;33253;42.144;25.884;2023-06-22T06:49:19;100705.94;;;24.42;98.24
47524;BME280;33253;42.144;25.884;2023-06-22T06:51:44;100740.13;;;24.49;97.26
47524;BME280;33253;42.144;25.884;2023-06-22T06:54:10;100740.19;;;24.45;96.59
47524;BME280;33253;42.144;25.884;2023-06-22T06:56:35;100732.94;;;24.56;95.08
47524;BME280;33253;42.144;25.884;2023-06-22T06:59:01;100739.88;;;24.65;95.00
47524;BME280;33253;42.144;25.884;2023-06-22T07:01:27;100735.28;;;24.78;94.99
47524;BME280;33253;42.144;25.884;2023-06-22T07:03:52;100736.81;;;24.91;92.24
47524;BME280;33253;42.144;25.884;2023-06-22T07:06:18;100738.28;;;25.04;90.99
47524;BME280;33253;42.144;25.884;2023-06-22T07:08:44;100736.50;;;25.07;90.95
47524;BME280;33253;42.144;25.884;2023-06-22T07:11:09;100736.22;;;25.20;90.99
47524;BME280;33253;42.144;25.884;2023-06-22T07:13:35;100732.53;;;25.29;89.92
47524;BME280;33253;42.144;25.884;2023-06-22T07:16:00;100739.50;;;25.33;89.52
47524;BME280;33253;42.144;25.884;2023-06-22T07:18:25;100733.31;;;25.34;91.92
47524;BME280;33253;42.144;25.884;2023-06-22T07:20:52;100733.03;;;25.50;93.82
47524;BME280;33253;42.144;25.884;2023-06-22T07:23:17;100738.88;;;25.64;89.66
47524;BME280;33253;42.144;25.884;2023-06-22T07:25:42;100737.63;;;25.82;87.73
47524;BME280;33253;42.144;25.884;2023-06-22T07:28:08;100747.03;;;25.96;86.37
47524;BME280;33253;42.144;25.884;2023-06-22T07:30:34;100731.97;;;25.99;87.55
47524;BME280;33253;42.144;25.884;2023-06-22T07:33:00;100738.66;;;26.16;85.80
47524;BME280;33253;42.144;25.884;2023-06-22T07:35:32;100739.22;;;26.29;88.21
47524;BME280;33253;42.144;25.884;2023-06-22T07:37:57;100733.88;;;26.32;86.01
47524;BME280;33253;42.144;25.884;2023-06-22T07:40:22;100744.03;;;26.49;82.57
47524;BME280;33253;42.144;25.884;2023-06-22T07:42:48;100743.81;;;26.58;86.61
47524;BME280;33253;42.144;25.884;2023-06-22T07:45:13;100749.69;;;26.70;84.91
47524;BME280;33253;42.144;25.884;2023-06-22T07:47:39;100747.75;;;26.78;85.56
47524;BME280;33253;42.144;25.884;2023-06-22T07:50:05;100747.34;;;26.93;80.91
47524;BME280;33253;42.144;25.884;2023-06-22T07:52:31;100722.84;;;26.85;83.06
47524;BME280;33253;42.144;25.884;2023-06-22T07:54:57;100744.38;;;27.06;86.42
47524;BME280;33253;42.144;25.884;2023-06-22T07:57:22;100746.06;;;27.08;86.96
47524;BME280;33253;42.144;25.884;2023-06-22T07:59:48;100713.44;;;27.06;85.00
47524;BME280;33253;42.144;25.884;2023-06-22T08:02:13;100742.63;;;27.38;83.22
47524;BME280;33253;42.144;25.884;2023-06-22T08:04:39;100732.78;;;27.43;82.92
47524;BME280;33253;42.144;25.884;2023-06-22T08:07:05;100735.19;;;27.51;79.82
47524;BME280;33253;42.144;25.884;2023-06-22T08:09:31;100747.19;;;27.63;78.25
47524;BME280;33253;42.144;25.884;2023-06-22T08:11:57;100703.50;;;27.46;79.35
47524;BME280;33253;42.144;25.884;2023-06-22T08:14:25;100730.31;;;27.65;76.33
47524;BME280;33253;42.144;25.884;2023-06-22T08:16:51;100741.59;;;27.73;78.63
47524;BME280;33253;42.144;25.884;2023-06-22T08:19:16;100738.66;;;27.83;76.69
47524;BME280;33253;42.144;25.884;2023-06-22T08:21:42;100704.44;;;27.73;76.35
47524;BME280;33253;42.144;25.884;2023-06-22T08:24:07;100701.53;;;27.83;76.74
47524;BME280;33253;42.144;25.884;2023-06-22T08:26:33;100695.13;;;27.88;75.17
47524;BME280;33253;42.144;25.884;2023-06-22T08:29:02;100716.53;;;28.12;77.05
47524;BME280;33253;42.144;25.884;2023-06-22T08:31:28;100714.66;;;28.16;74.81
47524;BME280;33253;42.144;25.884;2023-06-22T08:33:53;100692.91;;;28.04;76.73
47524;BME280;33253;42.144;25.884;2023-06-22T08:36:19;100713.28;;;28.04;76.93
47524;BME280;33253;42.144;25.884;2023-06-22T08:39:04;100712.69;;;27.92;76.46
47524;BME280;33253;42.144;25.884;2023-06-22T08:41:30;100688.47;;;27.75;75.14
47524;BME280;33253;42.144;25.884;2023-06-22T08:43:56;100706.63;;;27.89;76.94
47524;BME280;33253;42.144;25.884;2023-06-22T08:46:22;100708.41;;;27.88;76.68
47524;BME280;33253;42.144;25.884;2023-06-22T08:48:58;100714.50;;;27.92;75.04
47524;BME280;33253;42.144;25.884;2023-06-22T08:51:24;100720.03;;;27.84;74.21
47524;BME280;33253;42.144;25.884;2023-06-22T08:53:49;100714.59;;;27.89;72.45
47524;BME280;33253;42.144;25.884;2023-06-22T08:56:15;100718.63;;;28.01;73.63
47524;BME280;33253;42.144;25.884;2023-06-22T08:58:40;100714.97;;;28.05;74.06
47524;BME280;33253;42.144;25.884;2023-06-22T09:01:06;100708.56;;;28.12;71.98
47524;BME280;33253;42.144;25.884;2023-06-22T09:03:31;100717.75;;;28.29;72.27
47524;BME280;33253;42.144;25.884;2023-06-22T09:05:58;100716.44;;;28.42;70.17
47524;BME280;33253;42.144;25.884;2023-06-22T09:08:23;100720.34;;;28.57;71.72
47524;BME280;33253;42.144;25.884;2023-06-22T09:10:49;100704.97;;;28.67;70.79
47524;BME280;33253;42.144;25.884;2023-06-22T09:13:14;100712.63;;;28.78;67.92
47524;BME280;33253;42.144;25.884;2023-06-22T09:15:40;100715.69;;;28.91;68.93
47524;BME280;33253;42.144;25.884;2023-06-22T09:18:06;100708.19;;;29.02;66.62
47524;BME280;33253;42.144;25.884;2023-06-22T09:20:31;100704.53;;;29.06;66.39
47524;BME280;33253;42.144;25.884;2023-06-22T09:22:57;100707.19;;;29.06;65.88
47524;BME280;33253;42.144;25.884;2023-06-22T09:25:23;100698.72;;;29.18;65.65
47524;BME280;33253;42.144;25.884;2023-06-22T09:27:48;100645.06;;;29.09;63.21
47524;BME280;33253;42.144;25.884;2023-06-22T09:30:14;100672.03;;;29.21;62.79
47524;BME280;33253;42.144;25.884;2023-06-22T09:32:39;100695.25;;;29.42;63.80
47524;BME280;33253;42.144;25.884;2023-06-22T09:35:05;100690.28;;;29.32;62.26
47524;BME280;33253;42.144;25.884;2023-06-22T09:37:31;100683.44;;;29.25;61.69
47524;BME280;33253;42.144;25.884;2023-06-22T09:39:57;100689.00;;;29.43;61.40
47524;BME280;33253;42.144;25.884;2023-06-22T09:42:22;100691.94;;;29.59;60.76
47524;BME280;33253;42.144;25.884;2023-06-22T09:44:48;100683.22;;;29.55;62.11
47524;BME280;33253;42.144;25.884;2023-06-22T09:47:13;100674.75;;;29.67;61.78
47524;BME280;33253;42.144;25.884;2023-06-22T09:49:39;100688.81;;;29.93;57.64
47524;BME280;33253;42.144;25.884;2023-06-22T09:52:05;100682.19;;;30.04;56.30
47524;BME280;33253;42.144;25.884;2023-06-22T09:54:30;100673.75;;;30.14;54.13
47524;BME280;33253;42.144;25.884;2023-06-22T09:56:56;100689.09;;;30.30;52.07
47524;BME280;33253;42.144;25.884;2023-06-22T09:59:21;100682.63;;;30.36;55.76
47524;BME280;33253;42.144;25.884;2023-06-22T10:01:47;100688.97;;;30.33;50.66
47524;BME280;33253;42.144;25.884;2023-06-22T10:04:12;100689.09;;;30.52;52.70
47524;BME280;33253;42.144;25.884;2023-06-22T10:06:38;100681.16;;;30.71;55.17
47524;BME280;33253;42.144;25.884;2023-06-22T10:09:06;100684.00;;;30.87;52.13
47524;BME280;33253;42.144;25.884;2023-06-22T10:11:32;100673.84;;;30.95;50.28
47524;BME280;33253;42.144;25.884;2023-06-22T10:14:00;100674.94;;;30.91;49.00
47524;BME280;33253;42.144;25.884;2023-06-22T10:16:31;100672.78;;;31.00;53.04
47524;BME280;33253;42.144;25.884;2023-06-22T10:18:56;100670.16;;;31.19;54.57
47524;BME280;33253;42.144;25.884;2023-06-22T10:21:22;100668.75;;;31.30;56.12
47524;BME280;33253;42.144;25.884;2023-06-22T10:23:47;100662.59;;;31.48;50.53
47524;BME280;33253;42.144;25.884;2023-06-22T10:26:13;100658.22;;;31.66;50.21
47524;BME280;33253;42.144;25.884;2023-06-22T10:28:38;100668.78;;;31.86;52.97
47524;BME280;33253;42.144;25.884;2023-06-22T10:31:03;100666.75;;;31.91;49.08
47524;BME280;33253;42.144;25.884;2023-06-22T10:33:29;100662.13;;;31.95;51.78
47524;BME280;33253;42.144;25.884;2023-06-22T10:35:55;100662.00;;;32.16;51.19
47524;BME280;33253;42.144;25.884;2023-06-22T10:38:20;100634.34;;;32.17;50.54
47524;BME280;33253;42.144;25.884;2023-06-22T10:40:46;100656.03;;;32.46;51.80
47524;BME280;33253;42.144;25.884;2023-06-22T10:43:11;100654.63;;;32.56;46.59
47524;BME280;33253;42.144;25.884;2023-06-22T10:45:37;100642.16;;;32.72;44.62
47524;BME280;33253;42.144;25.884;2023-06-22T10:48:02;100649.50;;;32.86;43.36
47524;BME280;33253;42.144;25.884;2023-06-22T10:50:28;100636.22;;;33.01;43.36
47524;BME280;33253;42.144;25.884;2023-06-22T10:52:54;100614.22;;;32.96;43.49
47524;BME280;33253;42.144;25.884;2023-06-22T10:55:19;100638.31;;;33.12;44.06
47524;BME280;33253;42.144;25.884;2023-06-22T10:57:45;100634.78;;;33.27;44.94
47524;BME280;33253;42.144;25.884;2023-06-22T11:00:13;100634.81;;;33.43;46.69
47524;BME280;33253;42.144;25.884;2023-06-22T11:02:39;100603.13;;;33.35;45.04
47524;BME280;33253;42.144;25.884;2023-06-22T11:05:04;100632.13;;;33.59;44.21
47524;BME280;33253;42.144;25.884;2023-06-22T11:07:30;100624.69;;;33.64;46.58
47524;BME280;33253;42.144;25.884;2023-06-22T11:09:56;100618.41;;;33.65;47.17
47524;BME280;33253;42.144;25.884;2023-06-22T11:12:22;100613.50;;;33.58;45.82
47524;BME280;33253;42.144;25.884;2023-06-22T11:14:47;100619.34;;;33.64;48.80
47524;BME280;33253;42.144;25.884;2023-06-22T11:17:13;100625.72;;;33.78;46.44
47524;BME280;33253;42.144;25.884;2023-06-22T11:19:38;100594.88;;;33.70;45.59
47524;BME280;33253;42.144;25.884;2023-06-22T11:22:04;100627.59;;;33.76;46.31
47524;BME280;33253;42.144;25.884;2023-06-22T11:24:32;100625.28;;;33.85;44.13
47524;BME280;33253;42.144;25.884;2023-06-22T11:26:57;100627.34;;;33.96;42.84
47524;BME280;33253;42.144;25.884;2023-06-22T11:29:23;100620.03;;;33.52;44.88
47524;BME280;33253;42.144;25.884;2023-06-22T11:31:48;100615.16;;;33.75;48.13
47524;BME280;33253;42.144;25.884;2023-06-22T11:34:14;100623.25;;;34.05;46.57
47524;BME280;33253;42.144;25.884;2023-06-22T11:36:39;100626.47;;;34.26;43.12
47524;BME280;33253;42.144;25.884;2023-06-22T11:39:05;100622.72;;;34.45;46.72
47524;BME280;33253;42.144;25.884;2023-06-22T11:41:31;100618.41;;;34.57;46.12
47524;BME280;33253;42.144;25.884;2023-06-22T11:43:56;100614.75;;;34.58;43.66
47524;BME280;33253;42.144;25.884;2023-06-22T11:46:21;100614.66;;;34.59;42.45
47524;BME280;33253;42.144;25.884;2023-06-22T11:48:47;100617.34;;;34.59;44.26
47524;BME280;33253;42.144;25.884;2023-06-22T11:51:12;100616.97;;;34.65;44.19
47524;BME280;33253;42.144;25.884;2023-06-22T11:53:38;100612.78;;;34.76;43.05
47524;BME280;33253;42.144;25.884;2023-06-22T11:56:03;100617.72;;;34.53;43.30
47524;BME280;33253;42.144;25.884;2023-06-22T11:58:29;100601.78;;;34.21;43.30
47524;BME280;33253;42.144;25.884;2023-06-22T12:00:54;100599.16;;;34.19;43.66
47524;BME280;33253;42.144;25.884;2023-06-22T12:03:20;100578.94;;;33.99;45.53
47524;BME280;33253;42.144;25.884;2023-06-22T12:05:50;100609.75;;;33.76;45.97
47524;BME280;33253;42.144;25.884;2023-06-22T12:08:16;100604.63;;;33.41;45.06
47524;BME280;33253;42.144;25.884;2023-06-22T12:10:41;100586.69;;;33.10;44.19
47524;BME280;33253;42.144;25.884;2023-06-22T12:13:07;100601.13;;;33.07;46.65
47524;BME280;33253;42.144;25.884;2023-06-22T12:15:52;100592.88;;;32.27;49.26
47524;BME280;33253;42.144;25.884;2023-06-22T12:18:18;100576.63;;;31.97;49.99
47524;BME280;33253;42.144;25.884;2023-06-22T12:20:46;100594.88;;;32.57;50.49
47524;BME280;33253;42.144;25.884;2023-06-22T12:23:11;100584.63;;;32.83;46.60
47524;BME280;33253;42.144;25.884;2023-06-22T12:25:37;100589.63;;;33.21;48.05
47524;BME280;33253;42.144;25.884;2023-06-22T12:28:02;100586.03;;;33.54;47.85
47524;BME280;33253;42.144;25.884;2023-06-22T12:30:29;100582.44;;;33.69;51.05
47524;BME280;33253;42.144;25.884;2023-06-22T12:32:55;100555.09;;;33.64;45.20
47524;BME280;33253;42.144;25.884;2023-06-22T12:35:20;100564.84;;;33.65;46.27
47524;BME280;33253;42.144;25.884;2023-06-22T12:37:46;100585.44;;;33.95;47.98
47524;BME280;33253;42.144;25.884;2023-06-22T12:40:11;100573.66;;;33.83;45.86